createdAt,value
2023-05-20T00:01:27.502Z,72.87
2023-05-20T00:03:54.122Z,73.16
2023-05-20T00:06:20.879Z,72.40
2023-05-20T00:08:47.366Z,74.20
2023-05-20T00:11:13.842Z,74.18
2023-05-20T00:13:40.459Z,72.72
2023-05-20T00:16:07.040Z,73.46
2023-05-20T00:18:33.620Z,72.93
2023-05-20T00:21:00.178Z,74.69
2023-05-20T00:23:26.712Z,72.98
2023-05-20T00:25:53.197Z,74.33
2023-05-20T00:28:19.834Z,73.73
2023-05-20T00:30:46.469Z,74.72
2023-05-20T00:33:13.094Z,74.02
2023-05-20T00:35:39.534Z,74.48
2023-05-20T00:38:05.968Z,73.95
2023-05-20T00:40:32.499Z,73.91
2023-05-20T00:42:59.005Z,74.28
2023-05-20T00:45:25.776Z,75.28
2023-05-20T00:47:52.389Z,73.68
2023-05-20T00:50:19.085Z,74.36
2023-05-20T00:52:48.078Z,75.85
2023-05-20T00:55:14.532Z,75.50
2023-05-20T00:57:41.267Z,75.38
2023-05-20T01:00:09.145Z,75.99
2023-05-20T01:02:35.675Z,74.89
2023-05-20T01:05:02.398Z,75.48
2023-05-20T01:07:28.935Z,75.64
2023-05-20T01:09:56.188Z,74.43
2023-05-20T01:12:30.319Z,74.62
2023-05-20T01:15:01.584Z,76.23
2023-05-20T01:17:32.989Z,75.03
2023-05-20T01:20:01.426Z,75.07
2023-05-20T01:22:28.711Z,75.20
2023-05-20T01:24:55.862Z,75.61
2023-05-20T01:27:23.443Z,76.86
2023-05-20T01:29:51.830Z,74.92
2023-05-20T01:32:24.814Z,76.02
2023-05-20T01:34:53.102Z,76.57
2023-05-20T01:37:22.090Z,75.94
2023-05-20T01:39:50.638Z,75.00
2023-05-20T01:42:17.923Z,75.54
2023-05-20T01:44:44.825Z,77.17
2023-05-20T01:47:11.306Z,75.93
2023-05-20T01:49:37.768Z,76.37
2023-05-20T01:52:04.795Z,76.97
2023-05-20T01:54:31.355Z,75.92
2023-05-20T01:56:57.817Z,76.30
2023-05-20T01:59:24.252Z,77.25
2023-05-20T02:01:50.826Z,77.85
2023-05-20T02:04:19.032Z,77.37
2023-05-20T02:06:45.994Z,76.85
2023-05-20T02:09:12.679Z,78.12
2023-05-20T02:11:39.310Z,77.75
2023-05-20T02:14:06.255Z,77.88
2023-05-20T02:16:32.828Z,78.53
2023-05-20T02:18:59.342Z,78.15
2023-05-20T02:21:26.219Z,78.14
2023-05-20T02:23:52.666Z,78.26
2023-05-20T02:26:20.692Z,78.72
2023-05-20T02:28:50.506Z,79.21
2023-05-20T02:31:17.727Z,79.01
2023-05-20T02:33:45.287Z,78.94
2023-05-20T02:36:11.787Z,79.03
2023-05-20T02:38:38.238Z,79.02
2023-05-20T02:41:04.846Z,79.69
2023-05-20T02:43:32.706Z,79.88
2023-05-20T02:45:59.191Z,79.29
2023-05-20T02:48:25.728Z,78.89
2023-05-20T02:50:53.042Z,80.20
2023-05-20T02:53:19.734Z,80.29
2023-05-20T02:55:50.071Z,79.70
2023-05-20T02:58:17.208Z,79.67
2023-05-20T03:00:44.080Z,79.31
2023-05-20T03:03:10.762Z,80.10
2023-05-20T03:05:38.159Z,79.26
2023-05-20T03:08:09.648Z,78.63
2023-05-20T03:10:37.576Z,79.73
2023-05-20T03:13:08.533Z,79.15
2023-05-20T03:15:36.100Z,79.66
2023-05-20T03:18:02.837Z,79.36
2023-05-20T03:20:30.021Z,79.33
2023-05-20T03:22:56.895Z,79.31
2023-05-20T03:25:24.942Z,78.31
2023-05-20T03:27:51.561Z,78.54
2023-05-20T03:30:18.043Z,78.00
2023-05-20T03:32:44.796Z,77.21
2023-05-20T03:35:11.465Z,77.59
2023-05-20T03:37:37.976Z,78.26
2023-05-20T03:40:07.808Z,77.03
2023-05-20T03:42:34.632Z,77.83
2023-05-20T03:45:01.190Z,78.48
2023-05-20T03:47:28.250Z,78.94
2023-05-20T03:49:54.983Z,79.11
2023-05-20T03:52:21.544Z,79.18
2023-05-20T03:54:47.972Z,77.43
2023-05-20T03:57:14.426Z,79.60
2023-05-20T03:59:41.023Z,78.59
2023-05-20T04:02:08.054Z,79.38
2023-05-20T04:04:34.668Z,78.40
2023-05-20T04:07:01.199Z,78.56
2023-05-20T04:09:27.678Z,78.36
2023-05-20T04:11:54.125Z,79.19
2023-05-20T04:14:20.620Z,78.57
2023-05-20T04:16:47.125Z,79.09
2023-05-20T04:19:13.647Z,78.13
2023-05-20T04:21:43.141Z,78.31
2023-05-20T04:24:09.621Z,78.04
2023-05-20T04:26:36.108Z,78.86
2023-05-20T04:29:04.175Z,77.93
2023-05-20T04:31:31.762Z,77.03
2023-05-20T04:33:58.284Z,76.59
2023-05-20T04:36:30.337Z,76.12
2023-05-20T04:38:57.173Z,76.95
2023-05-20T04:41:24.130Z,75.99
2023-05-20T04:43:50.754Z,77.31
2023-05-20T04:46:17.282Z,76.45
2023-05-20T04:48:43.869Z,77.67
2023-05-20T04:51:11.025Z,76.02
2023-05-20T04:53:38.042Z,76.92
2023-05-20T04:56:05.673Z,75.75
2023-05-20T04:58:33.400Z,75.44
2023-05-20T05:01:00.063Z,75.47
2023-05-20T05:03:26.542Z,74.36
2023-05-20T05:05:56.618Z,75.38
2023-05-20T05:08:23.043Z,74.77
2023-05-20T05:10:49.604Z,74.22
2023-05-20T05:13:16.159Z,74.98
2023-05-20T05:15:42.753Z,74.20
2023-05-20T05:18:09.488Z,74.17
2023-05-20T05:20:36.286Z,74.91
2023-05-20T05:23:03.138Z,73.83
2023-05-20T05:25:29.722Z,74.38
2023-05-20T05:27:56.350Z,74.28
2023-05-20T05:30:22.862Z,74.37
2023-05-20T05:32:49.612Z,74.56
2023-05-20T05:35:16.453Z,73.81
2023-05-20T05:37:42.909Z,73.60
2023-05-20T05:40:09.737Z,73.53
2023-05-20T05:42:36.259Z,73.06
2023-05-20T05:45:02.763Z,72.94
2023-05-20T05:47:32.531Z,72.95
2023-05-20T05:50:00.066Z,73.63
2023-05-20T05:52:27.080Z,72.92
2023-05-20T05:54:54.316Z,73.02
2023-05-20T05:57:20.809Z,72.66
2023-05-20T05:59:47.279Z,72.67
2023-05-20T06:02:14.616Z,72.18
2023-05-20T06:04:41.513Z,72.35
2023-05-20T06:07:08.046Z,73.30
2023-05-20T06:09:34.612Z,72.80
2023-05-20T06:12:02.392Z,72.80
2023-05-20T06:14:28.867Z,73.74
2023-05-20T06:16:55.349Z,73.11
2023-05-20T06:19:21.969Z,73.58
2023-05-20T06:21:48.459Z,73.35
2023-05-20T06:24:15.060Z,73.41
2023-05-20T06:26:41.594Z,73.26
2023-05-20T06:29:08.014Z,74.48
2023-05-20T06:31:34.583Z,73.52
2023-05-20T06:34:01.157Z,74.68
2023-05-20T06:36:28.280Z,73.72
2023-05-20T06:38:55.064Z,73.14
2023-05-20T06:41:22.359Z,73.95
2023-05-20T06:43:50.503Z,73.21
2023-05-20T06:46:18.287Z,73.03
2023-05-20T06:48:44.804Z,73.16
2023-05-20T06:51:11.263Z,73.17
2023-05-20T06:53:37.838Z,73.65
2023-05-20T06:56:04.501Z,73.04
2023-05-20T06:58:31.056Z,73.98
2023-05-20T07:00:57.657Z,73.04
2023-05-20T07:03:24.162Z,73.07
2023-05-20T07:05:51.268Z,73.10
2023-05-20T07:08:17.678Z,72.60
2023-05-20T07:10:45.053Z,73.08
2023-05-20T07:13:11.513Z,72.90
2023-05-20T07:15:38.257Z,73.05
2023-05-20T07:18:04.792Z,72.33
2023-05-20T07:20:31.292Z,72.44
2023-05-20T07:22:57.762Z,71.83
2023-05-20T07:25:24.294Z,73.09
2023-05-20T07:27:50.760Z,72.86
2023-05-20T07:30:17.202Z,72.71
2023-05-20T07:32:43.716Z,72.67
2023-05-20T07:35:10.208Z,73.95
2023-05-20T07:37:36.664Z,72.97
2023-05-20T07:40:03.653Z,73.68
2023-05-20T07:42:30.152Z,72.76
2023-05-20T07:44:56.630Z,72.66
2023-05-20T07:47:23.084Z,72.93
2023-05-20T07:49:49.570Z,72.76
2023-05-20T07:52:15.986Z,71.95
2023-05-20T07:54:42.462Z,72.28
2023-05-20T07:57:08.979Z,71.67
2023-05-20T07:59:35.537Z,71.16
2023-05-20T08:02:02.069Z,71.16
2023-05-20T08:04:28.888Z,71.51
2023-05-20T08:06:55.396Z,72.53
2023-05-20T08:09:22.513Z,72.56
2023-05-20T08:11:48.992Z,72.23
2023-05-20T08:14:15.436Z,70.83
2023-05-20T08:16:42.568Z,70.84
2023-05-20T08:19:09.102Z,70.71
2023-05-20T08:21:35.630Z,70.75
2023-05-20T08:24:02.219Z,71.50
2023-05-20T08:26:28.745Z,70.67
2023-05-20T08:28:55.328Z,70.93
2023-05-20T08:31:21.925Z,71.85
2023-05-20T08:33:49.010Z,71.47
2023-05-20T08:36:16.270Z,71.23
2023-05-20T08:38:42.867Z,71.99
2023-05-20T08:41:09.317Z,71.15
2023-05-20T08:43:37.431Z,71.22
2023-05-20T08:46:06.428Z,71.04
2023-05-20T08:48:33.773Z,70.85
2023-05-20T08:51:03.287Z,70.36
2023-05-20T08:53:30.464Z,71.70
2023-05-20T08:56:02.686Z,70.97
2023-05-20T08:58:30.151Z,70.76
2023-05-20T09:00:58.661Z,70.47
2023-05-20T09:03:25.723Z,69.80
2023-05-20T09:05:53.578Z,71.10
2023-05-20T09:08:24.129Z,69.99
2023-05-20T09:10:52.581Z,68.81
2023-05-20T09:13:19.028Z,69.14
2023-05-20T09:15:45.473Z,69.10
2023-05-20T09:18:12.211Z,67.84
2023-05-20T09:20:38.872Z,69.91
2023-05-20T09:23:07.856Z,69.07
2023-05-20T09:25:35.549Z,68.96
2023-05-20T09:28:04.388Z,69.36
2023-05-20T09:30:32.766Z,68.67
2023-05-20T09:33:01.024Z,68.61
2023-05-20T09:35:28.270Z,69.90
2023-05-20T09:37:58.598Z,67.95
2023-05-20T09:40:27.879Z,67.42
2023-05-20T09:42:57.141Z,69.31
2023-05-20T09:45:24.549Z,66.72
2023-05-20T09:47:53.031Z,68.39
2023-05-20T09:50:23.329Z,68.60
2023-05-20T09:52:51.321Z,67.06
2023-05-20T09:55:20.116Z,67.60
2023-05-20T09:57:47.310Z,68.21
2023-05-20T10:00:17.394Z,69.30
2023-05-20T10:02:46.104Z,67.30
2023-05-20T10:05:18.643Z,67.82
2023-05-20T10:07:53.656Z,67.59
2023-05-20T10:10:26.332Z,67.67
2023-05-20T10:13:07.761Z,67.59
2023-05-20T10:16:13.055Z,67.36
2023-05-20T10:18:57.815Z,66.02
2023-05-20T10:21:25.154Z,68.61
2023-05-20T10:23:52.371Z,69.62
2023-05-20T10:26:19.430Z,67.97
2023-05-20T10:28:47.336Z,67.62
2023-05-20T10:31:23.974Z,66.62
2023-05-20T10:33:53.387Z,67.12
2023-05-20T10:36:26.201Z,66.71
2023-05-20T10:38:54.665Z,67.63
2023-05-20T10:41:26.678Z,67.17
2023-05-20T10:44:03.509Z,67.11
2023-05-20T10:46:38.594Z,67.28
2023-05-20T10:49:22.463Z,66.48
2023-05-20T10:51:51.458Z,66.39
2023-05-20T10:54:18.045Z,67.99
2023-05-20T10:56:53.372Z,67.78
2023-05-20T10:59:21.634Z,66.79
2023-05-20T11:01:49.310Z,67.80
2023-05-20T11:04:17.448Z,66.97
2023-05-20T11:06:53.484Z,66.92
2023-05-20T11:09:19.968Z,67.63
2023-05-20T11:11:46.697Z,66.87
2023-05-20T11:14:14.730Z,66.69
2023-05-20T11:16:42.398Z,67.79
2023-05-20T11:19:14.495Z,66.31
2023-05-20T11:21:44.737Z,67.96
2023-05-20T11:24:11.276Z,66.18
2023-05-20T11:26:38.474Z,68.09
2023-05-20T11:29:05.050Z,65.17
2023-05-20T11:31:32.333Z,66.59
2023-05-20T11:34:02.169Z,65.40
2023-05-20T11:36:28.890Z,66.32
2023-05-20T11:38:58.501Z,65.53
2023-05-20T11:41:25.623Z,65.64
2023-05-20T11:43:59.599Z,66.25
2023-05-20T11:46:27.128Z,65.29
2023-05-20T11:48:57.663Z,66.77
2023-05-20T11:51:28.967Z,66.50
2023-05-20T11:54:06.631Z,64.90
2023-05-20T11:56:37.732Z,66.50
2023-05-20T11:59:09.164Z,65.99
2023-05-20T12:01:37.759Z,65.58
2023-05-20T12:04:05.592Z,65.58
2023-05-20T12:06:32.422Z,65.97
2023-05-20T12:09:06.640Z,66.22
2023-05-20T12:11:35.484Z,64.72
2023-05-20T12:14:05.071Z,65.51
2023-05-20T12:16:33.327Z,65.90
2023-05-20T12:19:00.540Z,66.78
2023-05-20T12:21:28.942Z,65.75
2023-05-20T12:23:57.984Z,66.27
2023-05-20T12:26:26.845Z,65.14
2023-05-20T12:28:54.605Z,65.84
2023-05-20T12:31:21.402Z,66.00
2023-05-20T12:33:48.283Z,66.18
2023-05-20T12:36:15.395Z,66.68
2023-05-20T12:38:42.136Z,66.74
2023-05-20T12:41:08.919Z,66.52
2023-05-20T12:43:37.497Z,66.00
2023-05-20T12:46:04.897Z,67.23
2023-05-20T12:48:31.392Z,66.76
2023-05-20T12:50:57.989Z,67.44
2023-05-20T12:53:25.309Z,65.62
2023-05-20T12:55:51.829Z,65.45
2023-05-20T12:58:18.309Z,66.06
2023-05-20T13:00:44.962Z,66.80
2023-05-20T13:03:11.862Z,66.43
2023-05-20T13:05:38.472Z,65.85
2023-05-20T13:08:05.350Z,65.23
2023-05-20T13:10:33.276Z,65.98
2023-05-20T13:13:00.063Z,65.70
2023-05-20T13:15:26.630Z,65.53
2023-05-20T13:17:54.513Z,66.10
2023-05-20T13:20:21.489Z,66.34
2023-05-20T13:22:50.086Z,65.92
2023-05-20T13:25:16.893Z,66.32
2023-05-20T13:27:43.808Z,67.14
2023-05-20T13:30:11.138Z,65.89
2023-05-20T13:32:37.780Z,66.46
2023-05-20T13:35:04.918Z,65.63
2023-05-20T13:37:31.533Z,65.70
2023-05-20T13:39:58.019Z,66.13
2023-05-20T13:42:24.492Z,66.60
2023-05-20T13:44:51.209Z,65.53
2023-05-20T13:47:17.775Z,66.82
2023-05-20T13:49:44.241Z,65.24
2023-05-20T13:52:10.914Z,65.55
2023-05-20T13:54:37.540Z,65.90
2023-05-20T13:57:07.691Z,65.23
2023-05-20T13:59:35.282Z,65.86
2023-05-20T14:02:02.555Z,65.83
2023-05-20T14:04:31.065Z,65.32
2023-05-20T14:06:59.158Z,65.61
2023-05-20T14:09:25.808Z,65.03
2023-05-20T14:11:52.234Z,65.04
2023-05-20T14:14:18.717Z,65.08
2023-05-20T14:16:45.257Z,65.60
2023-05-20T14:19:11.747Z,65.25
2023-05-20T14:21:38.349Z,65.90
2023-05-20T14:24:05.185Z,66.34
2023-05-20T14:26:33.360Z,66.15
2023-05-20T14:29:00.692Z,65.94
2023-05-20T14:31:27.599Z,65.54
2023-05-20T14:33:54.074Z,65.94
2023-05-20T14:36:20.662Z,64.96
2023-05-20T14:38:47.626Z,66.02
2023-05-20T14:41:15.878Z,65.00
2023-05-20T14:43:42.505Z,65.55
2023-05-20T14:46:10.251Z,65.86
2023-05-20T14:48:36.926Z,66.16
2023-05-20T14:51:03.450Z,66.37
2023-05-20T14:53:29.873Z,66.31
2023-05-20T14:55:56.426Z,65.65
2023-05-20T14:58:22.993Z,65.74
2023-05-20T15:00:49.457Z,66.40
2023-05-20T15:03:16.169Z,66.08
2023-05-20T15:05:42.844Z,65.59
2023-05-20T15:08:09.376Z,64.65
2023-05-20T15:10:36.142Z,64.89
2023-05-20T15:13:02.832Z,64.97
2023-05-20T15:15:29.319Z,65.65
2023-05-20T15:17:56.484Z,66.38
2023-05-20T15:20:23.170Z,65.65
2023-05-20T15:22:49.651Z,65.79
2023-05-20T15:25:16.345Z,66.40
2023-05-20T15:27:43.104Z,65.23
2023-05-20T15:30:10.289Z,65.01
2023-05-20T15:32:36.951Z,66.27
2023-05-20T15:35:04.413Z,65.48
2023-05-20T15:37:31.167Z,65.29
2023-05-20T15:39:57.728Z,65.49
2023-05-20T15:42:25.005Z,66.05
2023-05-20T15:44:51.496Z,66.31
2023-05-20T15:47:18.059Z,65.69
2023-05-20T15:49:44.665Z,65.25
2023-05-20T15:52:11.370Z,65.69
2023-05-20T15:54:37.853Z,65.67
2023-05-20T15:57:05.066Z,66.36
2023-05-20T15:59:31.725Z,65.78
2023-05-20T16:01:58.409Z,65.91
2023-05-20T16:04:25.205Z,65.71
2023-05-20T16:06:51.776Z,66.26
2023-05-20T16:09:18.397Z,65.83
2023-05-20T16:11:44.871Z,65.73
2023-05-20T16:14:11.445Z,65.07
2023-05-20T16:16:38.264Z,65.26
2023-05-20T16:19:04.964Z,64.60
2023-05-20T16:21:31.646Z,64.69
2023-05-20T16:23:58.506Z,65.36
2023-05-20T16:26:25.051Z,65.13
2023-05-20T16:28:51.502Z,64.67
2023-05-20T16:31:18.053Z,64.63
2023-05-20T16:33:44.686Z,64.29
2023-05-20T16:36:12.017Z,64.66
2023-05-20T16:38:39.216Z,64.80
2023-05-20T16:41:05.865Z,64.70
2023-05-20T16:43:32.456Z,64.98
2023-05-20T16:45:59.107Z,66.12
2023-05-20T16:48:26.719Z,65.45
2023-05-20T16:50:53.213Z,65.43
2023-05-20T16:53:19.886Z,65.20
2023-05-20T16:55:47.115Z,64.97
2023-05-20T16:58:13.757Z,64.49
2023-05-20T17:00:40.905Z,64.99
2023-05-20T17:03:07.474Z,65.29
2023-05-20T17:05:34.116Z,65.63
2023-05-20T17:08:00.885Z,65.51
2023-05-20T17:10:28.803Z,65.60
2023-05-20T17:12:55.421Z,65.63
2023-05-20T17:15:23.727Z,66.11
2023-05-20T17:17:50.644Z,65.74
2023-05-20T17:20:17.430Z,65.55
2023-05-20T17:22:44.140Z,65.91
2023-05-20T17:25:10.967Z,65.09
2023-05-20T17:27:37.694Z,65.84
2023-05-20T17:30:04.537Z,65.90
2023-05-20T17:32:31.233Z,65.75
2023-05-20T17:34:57.769Z,66.00
2023-05-20T17:37:24.272Z,65.77
2023-05-20T17:39:50.771Z,65.82
2023-05-20T17:42:17.362Z,66.11
2023-05-20T17:44:43.861Z,66.01
2023-05-20T17:47:10.415Z,65.50
2023-05-20T17:49:36.938Z,65.67
2023-05-20T17:52:03.474Z,66.37
2023-05-20T17:54:29.955Z,66.01
2023-05-20T17:56:56.452Z,66.35
2023-05-20T17:59:22.905Z,66.32
2023-05-20T18:01:49.523Z,66.85
2023-05-20T18:04:16.700Z,66.66
2023-05-20T18:06:43.294Z,67.10
2023-05-20T18:09:09.876Z,66.89
2023-05-20T18:11:36.464Z,66.90
2023-05-20T18:14:02.970Z,67.35
2023-05-20T18:16:30.641Z,67.67
2023-05-20T18:18:58.023Z,67.17
2023-05-20T18:21:24.870Z,67.34
2023-05-20T18:23:51.826Z,67.35
2023-05-20T18:26:18.456Z,67.83
2023-05-20T18:28:45.031Z,67.77
2023-05-20T18:31:11.941Z,67.80
2023-05-20T18:33:38.774Z,67.68
2023-05-20T18:36:06.004Z,67.97
2023-05-20T18:38:32.907Z,68.42
2023-05-20T18:40:59.726Z,67.50
2023-05-20T18:43:26.513Z,68.07
2023-05-20T18:45:53.231Z,68.89
2023-05-20T18:48:26.612Z,70.24
2023-05-20T18:50:54.626Z,69.46
2023-05-20T18:53:21.145Z,69.65
2023-05-20T18:55:48.332Z,70.53
2023-05-20T18:58:15.058Z,70.62
2023-05-20T19:00:42.055Z,70.96
2023-05-20T19:03:08.634Z,71.29
2023-05-20T19:05:35.608Z,71.90
2023-05-20T19:08:03.034Z,72.53
2023-05-20T19:10:29.617Z,72.65
2023-05-20T19:12:56.607Z,73.63
2023-05-20T19:15:23.171Z,72.31
2023-05-20T19:17:49.813Z,72.94
2023-05-20T19:20:16.434Z,72.52
2023-05-20T19:22:42.948Z,73.12
2023-05-20T19:25:09.696Z,72.57
2023-05-20T19:27:36.327Z,72.43
2023-05-20T19:30:03.818Z,72.62
2023-05-20T19:32:30.437Z,71.82
2023-05-20T19:34:57.004Z,72.30
2023-05-20T19:37:24.280Z,70.68
2023-05-20T19:39:50.830Z,71.29
2023-05-20T19:42:17.350Z,72.01
2023-05-20T19:44:46.387Z,72.63
2023-05-20T19:47:13.001Z,71.17
2023-05-20T19:49:39.581Z,71.35
2023-05-20T19:52:06.884Z,71.64
2023-05-20T19:54:33.624Z,70.86
2023-05-20T19:57:00.147Z,71.36
2023-05-20T19:59:26.859Z,70.92
2023-05-20T20:01:53.400Z,71.24
2023-05-20T20:04:20.132Z,70.67
2023-05-20T20:06:47.954Z,71.60
2023-05-20T20:09:14.512Z,70.13
2023-05-20T20:11:41.011Z,70.88
2023-05-20T20:14:07.485Z,70.31
2023-05-20T20:16:34.627Z,70.37
2023-05-20T20:19:01.394Z,70.69
2023-05-20T20:21:27.890Z,70.58
2023-05-20T20:23:54.376Z,70.24
2023-05-20T20:26:25.672Z,70.84
2023-05-20T20:28:52.257Z,69.86
2023-05-20T20:31:18.761Z,69.80
2023-05-20T20:33:45.323Z,69.11
2023-05-20T20:36:11.857Z,69.11
2023-05-20T20:38:38.575Z,69.68
2023-05-20T20:41:05.103Z,69.74
2023-05-20T20:43:34.558Z,70.18
2023-05-20T20:46:01.022Z,69.18
2023-05-20T20:48:27.635Z,69.54
2023-05-20T20:50:54.836Z,70.45
2023-05-20T20:53:21.654Z,70.21
2023-05-20T20:55:48.425Z,70.47
2023-05-20T20:58:15.514Z,69.50
2023-05-20T21:00:44.826Z,70.76
2023-05-20T21:03:12.633Z,69.59
2023-05-20T21:05:39.170Z,70.83
2023-05-20T21:08:08.210Z,70.40
2023-05-20T21:10:36.921Z,69.63
2023-05-20T21:13:03.709Z,71.31
2023-05-20T21:15:30.398Z,71.56
2023-05-20T21:17:57.021Z,70.01
2023-05-20T21:20:23.734Z,71.30
2023-05-20T21:22:50.167Z,70.94
2023-05-20T21:25:16.936Z,70.77
2023-05-20T21:27:43.438Z,70.10
2023-05-20T21:30:11.179Z,69.79
2023-05-20T21:32:38.361Z,71.27
2023-05-20T21:35:05.316Z,70.50
2023-05-20T21:37:31.840Z,71.43
2023-05-20T21:39:58.309Z,70.31
2023-05-20T21:42:24.841Z,71.65
2023-05-20T21:44:51.479Z,71.13
2023-05-20T21:47:19.609Z,72.04
2023-05-20T21:49:47.902Z,71.48
2023-05-20T21:52:14.444Z,71.09
2023-05-20T21:54:41.489Z,70.44
2023-05-20T21:57:08.152Z,70.45
2023-05-20T21:59:34.672Z,71.69
2023-05-20T22:02:01.345Z,71.91
2023-05-20T22:04:28.576Z,71.37
2023-05-20T22:06:56.123Z,71.70
2023-05-20T22:09:22.656Z,71.72
2023-05-20T22:11:49.667Z,70.99
2023-05-20T22:14:16.868Z,71.52
2023-05-20T22:16:46.537Z,71.51
2023-05-20T22:19:17.164Z,71.98
2023-05-20T22:21:50.239Z,73.17
2023-05-20T22:24:18.014Z,73.61
2023-05-20T22:26:44.731Z,71.85
2023-05-20T22:29:11.251Z,74.14
2023-05-20T22:31:38.080Z,73.35
2023-05-20T22:34:05.429Z,73.67
2023-05-20T22:36:34.136Z,72.88
2023-05-20T22:39:04.696Z,73.39
2023-05-20T22:41:31.280Z,73.63
2023-05-20T22:43:57.901Z,73.74
2023-05-20T22:46:25.130Z,75.39
2023-05-20T22:48:55.444Z,73.72
2023-05-20T22:51:22.700Z,74.97
2023-05-20T22:53:49.326Z,75.43
2023-05-20T22:56:16.043Z,75.24
2023-05-20T22:58:42.597Z,74.79
2023-05-20T23:01:10.358Z,75.43
2023-05-20T23:03:37.691Z,76.02
2023-05-20T23:06:04.371Z,75.53
2023-05-20T23:08:30.899Z,75.20
2023-05-20T23:10:57.365Z,74.99
2023-05-20T23:13:23.787Z,75.22
2023-05-20T23:15:50.411Z,75.43
2023-05-20T23:18:17.919Z,75.83
2023-05-20T23:20:44.431Z,76.14
2023-05-20T23:23:11.705Z,76.17
2023-05-20T23:25:39.019Z,76.29
2023-05-20T23:28:05.938Z,75.62
2023-05-20T23:30:32.494Z,76.74
2023-05-20T23:32:59.437Z,77.13
2023-05-20T23:35:26.302Z,75.80
2023-05-20T23:37:52.747Z,75.76
2023-05-20T23:40:19.299Z,76.82
2023-05-20T23:42:45.853Z,76.24
2023-05-20T23:45:13.078Z,77.28
2023-05-20T23:47:39.717Z,77.99
2023-05-20T23:50:06.542Z,78.19
2023-05-20T23:52:33.060Z,77.97
2023-05-20T23:55:00.150Z,77.18
2023-05-20T23:57:26.743Z,77.77
2023-05-20T23:59:53.199Z,77.96
